sensor_id;sensor_type;location;lat;lon;timestamp;P1;durP1;ratioP1;P2;durP2;ratioP2
52918;SDS011;38793;52.690;6.812;2022-10-22T00:00:52;7.45;;;4.38;;
52918;SDS011;38793;52.690;6.812;2022-10-22T00:03:17;4.15;;;3.80;;
52918;SDS011;38793;52.690;6.812;2022-10-22T00:05:43;8.40;;;4.65;;
52918;SDS011;38793;52.690;6.812;2022-10-22T00:08:08;9.35;;;3.92;;
52918;SDS011;38793;52.690;6.812;2022-10-22T00:10:35;7.47;;;3.70;;
52918;SDS011;38793;52.690;6.812;2022-10-22T00:13:02;6.55;;;3.97;;
52918;SDS011;38793;52.690;6.812;2022-10-22T00:15:28;6.40;;;4.68;;
52918;SDS011;38793;52.690;6.812;2022-10-22T00:17:53;4.90;;;4.45;;
52918;SDS011;38793;52.690;6.812;2022-10-22T00:20:19;6.00;;;3.97;;
52918;SDS011;38793;52.690;6.812;2022-10-22T00:22:44;10.40;;;5.18;;
52918;SDS011;38793;52.690;6.812;2022-10-22T00:25:10;8.82;;;5.10;;
52918;SDS011;38793;52.690;6.812;2022-10-22T00:27:35;11.30;;;5.28;;
52918;SDS011;38793;52.690;6.812;2022-10-22T00:30:01;4.90;;;4.43;;
52918;SDS011;38793;52.690;6.812;2022-10-22T00:32:26;5.88;;;4.70;;
52918;SDS011;38793;52.690;6.812;2022-10-22T00:34:52;6.55;;;5.03;;
52918;SDS011;38793;52.690;6.812;2022-10-22T00:37:17;15.48;;;5.70;;
52918;SDS011;38793;52.690;6.812;2022-10-22T00:39:43;8.13;;;5.72;;
52918;SDS011;38793;52.690;6.812;2022-10-22T00:42:11;7.70;;;5.10;;
52918;SDS011;38793;52.690;6.812;2022-10-22T00:47:36;7.10;;;5.00;;
52918;SDS011;38793;52.690;6.812;2022-10-22T00:50:15;8.73;;;5.00;;
52918;SDS011;38793;52.690;6.812;2022-10-22T00:52:45;7.55;;;4.43;;
52918;SDS011;38793;52.690;6.812;2022-10-22T00:55:11;8.88;;;5.90;;
52918;SDS011;38793;52.690;6.812;2022-10-22T00:57:38;10.38;;;4.63;;
52918;SDS011;38793;52.690;6.812;2022-10-22T01:00:04;8.05;;;4.70;;
52918;SDS011;38793;52.690;6.812;2022-10-22T01:02:30;6.72;;;5.20;;
52918;SDS011;38793;52.690;6.812;2022-10-22T01:04:56;6.95;;;4.90;;
52918;SDS011;38793;52.690;6.812;2022-10-22T01:07:22;8.90;;;4.83;;
52918;SDS011;38793;52.690;6.812;2022-10-22T01:09:58;6.97;;;4.20;;
52918;SDS011;38793;52.690;6.812;2022-10-22T01:15:29;7.10;;;4.63;;
52918;SDS011;38793;52.690;6.812;2022-10-22T01:18:14;5.60;;;4.55;;
52918;SDS011;38793;52.690;6.812;2022-10-22T01:31:30;5.43;;;4.35;;
52918;SDS011;38793;52.690;6.812;2022-10-22T01:34:00;6.72;;;4.50;;
52918;SDS011;38793;52.690;6.812;2022-10-22T01:36:28;8.38;;;6.00;;
52918;SDS011;38793;52.690;6.812;2022-10-22T01:38:56;7.97;;;4.72;;
52918;SDS011;38793;52.690;6.812;2022-10-22T01:41:25;8.60;;;4.75;;
52918;SDS011;38793;52.690;6.812;2022-10-22T01:43:52;9.30;;;4.40;;
52918;SDS011;38793;52.690;6.812;2022-10-22T01:46:18;9.23;;;4.80;;
52918;SDS011;38793;52.690;6.812;2022-10-22T01:51:43;7.30;;;4.40;;
52918;SDS011;38793;52.690;6.812;2022-10-22T01:57:05;8.13;;;5.63;;
52918;SDS011;38793;52.690;6.812;2022-10-22T02:00:03;5.70;;;4.30;;
52918;SDS011;38793;52.690;6.812;2022-10-22T02:02:36;7.50;;;4.78;;
52918;SDS011;38793;52.690;6.812;2022-10-22T02:05:35;11.75;;;5.10;;
52918;SDS011;38793;52.690;6.812;2022-10-22T02:08:15;7.75;;;5.22;;
52918;SDS011;38793;52.690;6.812;2022-10-22T02:10:44;5.95;;;4.93;;
52918;SDS011;38793;52.690;6.812;2022-10-22T02:13:13;8.82;;;5.07;;
52918;SDS011;38793;52.690;6.812;2022-10-22T02:15:42;9.75;;;5.40;;
52918;SDS011;38793;52.690;6.812;2022-10-22T02:18:09;10.10;;;6.78;;
52918;SDS011;38793;52.690;6.812;2022-10-22T02:20:36;9.23;;;5.82;;
52918;SDS011;38793;52.690;6.812;2022-10-22T02:23:05;14.43;;;6.55;;
52918;SDS011;38793;52.690;6.812;2022-10-22T02:25:31;8.02;;;5.40;;
52918;SDS011;38793;52.690;6.812;2022-10-22T02:28:03;8.60;;;5.00;;
52918;SDS011;38793;52.690;6.812;2022-10-22T02:30:53;12.52;;;6.43;;
52918;SDS011;38793;52.690;6.812;2022-10-22T02:33:24;12.68;;;6.18;;
52918;SDS011;38793;52.690;6.812;2022-10-22T02:35:56;6.47;;;5.72;;
52918;SDS011;38793;52.690;6.812;2022-10-22T02:38:24;8.95;;;5.95;;
52918;SDS011;38793;52.690;6.812;2022-10-22T02:40:51;9.13;;;6.18;;
52918;SDS011;38793;52.690;6.812;2022-10-22T02:43:17;7.20;;;6.10;;
52918;SDS011;38793;52.690;6.812;2022-10-22T02:45:43;7.68;;;6.07;;
52918;SDS011;38793;52.690;6.812;2022-10-22T02:48:09;14.20;;;6.30;;
52918;SDS011;38793;52.690;6.812;2022-10-22T02:50:35;13.10;;;6.45;;
52918;SDS011;38793;52.690;6.812;2022-10-22T02:53:00;14.38;;;6.88;;
52918;SDS011;38793;52.690;6.812;2022-10-22T02:55:26;11.93;;;7.43;;
52918;SDS011;38793;52.690;6.812;2022-10-22T02:57:52;10.68;;;7.38;;
52918;SDS011;38793;52.690;6.812;2022-10-22T03:00:19;12.30;;;7.35;;
52918;SDS011;38793;52.690;6.812;2022-10-22T03:02:45;16.10;;;8.50;;
52918;SDS011;38793;52.690;6.812;2022-10-22T03:05:11;8.53;;;7.17;;
52918;SDS011;38793;52.690;6.812;2022-10-22T03:07:36;10.93;;;7.73;;
52918;SDS011;38793;52.690;6.812;2022-10-22T03:10:02;9.40;;;7.43;;
52918;SDS011;38793;52.690;6.812;2022-10-22T03:12:28;14.32;;;7.88;;
52918;SDS011;38793;52.690;6.812;2022-10-22T03:14:53;12.23;;;7.55;;
52918;SDS011;38793;52.690;6.812;2022-10-22T03:17:19;14.35;;;8.43;;
52918;SDS011;38793;52.690;6.812;2022-10-22T03:19:44;11.60;;;8.37;;
52918;SDS011;38793;52.690;6.812;2022-10-22T03:22:11;9.98;;;7.93;;
52918;SDS011;38793;52.690;6.812;2022-10-22T03:24:42;14.63;;;8.02;;
52918;SDS011;38793;52.690;6.812;2022-10-22T03:27:10;10.35;;;7.90;;
52918;SDS011;38793;52.690;6.812;2022-10-22T03:29:38;13.20;;;9.60;;
52918;SDS011;38793;52.690;6.812;2022-10-22T03:32:05;22.55;;;9.18;;
52918;SDS011;38793;52.690;6.812;2022-10-22T03:34:31;15.90;;;8.32;;
52918;SDS011;38793;52.690;6.812;2022-10-22T03:36:57;12.88;;;8.02;;
52918;SDS011;38793;52.690;6.812;2022-10-22T03:39:24;12.00;;;7.50;;
52918;SDS011;38793;52.690;6.812;2022-10-22T03:41:51;11.63;;;8.02;;
52918;SDS011;38793;52.690;6.812;2022-10-22T03:44:17;12.68;;;8.32;;
52918;SDS011;38793;52.690;6.812;2022-10-22T03:46:44;12.25;;;8.40;;
52918;SDS011;38793;52.690;6.812;2022-10-22T03:49:09;15.03;;;7.90;;
52918;SDS011;38793;52.690;6.812;2022-10-22T03:51:35;12.77;;;8.27;;
52918;SDS011;38793;52.690;6.812;2022-10-22T03:54:01;14.65;;;8.52;;
52918;SDS011;38793;52.690;6.812;2022-10-22T03:56:27;10.80;;;8.32;;
52918;SDS011;38793;52.690;6.812;2022-10-22T03:58:56;14.80;;;8.48;;
52918;SDS011;38793;52.690;6.812;2022-10-22T04:01:23;16.83;;;7.93;;
52918;SDS011;38793;52.690;6.812;2022-10-22T04:03:49;13.10;;;7.35;;
52918;SDS011;38793;52.690;6.812;2022-10-22T04:06:15;19.92;;;8.88;;
52918;SDS011;38793;52.690;6.812;2022-10-22T04:08:42;10.95;;;7.18;;
52918;SDS011;38793;52.690;6.812;2022-10-22T04:11:09;15.75;;;8.68;;
52918;SDS011;38793;52.690;6.812;2022-10-22T04:13:36;20.25;;;8.57;;
52918;SDS011;38793;52.690;6.812;2022-10-22T04:16:05;9.00;;;7.28;;
52918;SDS011;38793;52.690;6.812;2022-10-22T04:18:34;15.68;;;8.15;;
52918;SDS011;38793;52.690;6.812;2022-10-22T04:21:00;14.90;;;9.25;;
52918;SDS011;38793;52.690;6.812;2022-10-22T04:23:26;17.95;;;8.85;;
52918;SDS011;38793;52.690;6.812;2022-10-22T04:26:02;13.38;;;7.80;;
52918;SDS011;38793;52.690;6.812;2022-10-22T04:28:29;12.68;;;7.03;;
52918;SDS011;38793;52.690;6.812;2022-10-22T04:30:54;16.00;;;8.35;;
52918;SDS011;38793;52.690;6.812;2022-10-22T04:33:20;12.35;;;8.10;;
52918;SDS011;38793;52.690;6.812;2022-10-22T04:35:46;15.60;;;7.95;;
52918;SDS011;38793;52.690;6.812;2022-10-22T04:38:12;19.10;;;9.53;;
52918;SDS011;38793;52.690;6.812;2022-10-22T04:40:37;11.32;;;7.85;;
52918;SDS011;38793;52.690;6.812;2022-10-22T04:43:03;14.20;;;8.27;;
52918;SDS011;38793;52.690;6.812;2022-10-22T04:45:29;21.73;;;9.27;;
52918;SDS011;38793;52.690;6.812;2022-10-22T04:47:56;20.00;;;9.77;;
52918;SDS011;38793;52.690;6.812;2022-10-22T04:50:21;15.23;;;8.80;;
52918;SDS011;38793;52.690;6.812;2022-10-22T04:52:47;17.47;;;9.03;;
52918;SDS011;38793;52.690;6.812;2022-10-22T04:55:12;16.30;;;8.50;;
52918;SDS011;38793;52.690;6.812;2022-10-22T04:57:38;13.85;;;8.23;;
52918;SDS011;38793;52.690;6.812;2022-10-22T05:00:04;14.23;;;9.13;;
52918;SDS011;38793;52.690;6.812;2022-10-22T05:02:30;19.92;;;9.18;;
52918;SDS011;38793;52.690;6.812;2022-10-22T05:04:55;14.67;;;8.83;;
52918;SDS011;38793;52.690;6.812;2022-10-22T05:07:21;17.00;;;8.98;;
52918;SDS011;38793;52.690;6.812;2022-10-22T05:09:47;16.77;;;9.13;;
52918;SDS011;38793;52.690;6.812;2022-10-22T05:12:13;21.23;;;9.73;;
52918;SDS011;38793;52.690;6.812;2022-10-22T05:14:38;15.70;;;9.17;;
52918;SDS011;38793;52.690;6.812;2022-10-22T05:17:04;26.88;;;10.30;;
52918;SDS011;38793;52.690;6.812;2022-10-22T05:19:30;16.73;;;8.33;;
52918;SDS011;38793;52.690;6.812;2022-10-22T05:21:57;16.65;;;9.50;;
52918;SDS011;38793;52.690;6.812;2022-10-22T05:24:24;16.95;;;8.55;;
52918;SDS011;38793;52.690;6.812;2022-10-22T05:29:17;15.55;;;8.90;;
52918;SDS011;38793;52.690;6.812;2022-10-22T05:31:42;15.40;;;9.48;;
52918;SDS011;38793;52.690;6.812;2022-10-22T05:34:08;15.82;;;8.80;;
52918;SDS011;38793;52.690;6.812;2022-10-22T05:36:34;12.25;;;8.57;;
52918;SDS011;38793;52.690;6.812;2022-10-22T05:38:59;17.60;;;9.35;;
52918;SDS011;38793;52.690;6.812;2022-10-22T05:41:25;16.77;;;9.13;;
52918;SDS011;38793;52.690;6.812;2022-10-22T05:43:55;17.17;;;8.63;;
52918;SDS011;38793;52.690;6.812;2022-10-22T05:46:22;15.02;;;8.68;;
52918;SDS011;38793;52.690;6.812;2022-10-22T05:48:49;13.55;;;8.65;;
52918;SDS011;38793;52.690;6.812;2022-10-22T05:51:16;16.15;;;8.13;;
52918;SDS011;38793;52.690;6.812;2022-10-22T05:53:42;19.13;;;8.88;;
52918;SDS011;38793;52.690;6.812;2022-10-22T05:56:11;15.98;;;8.98;;
52918;SDS011;38793;52.690;6.812;2022-10-22T05:58:39;16.88;;;8.68;;
52918;SDS011;38793;52.690;6.812;2022-10-22T06:01:12;11.57;;;8.05;;
52918;SDS011;38793;52.690;6.812;2022-10-22T06:03:42;16.77;;;8.95;;
52918;SDS011;38793;52.690;6.812;2022-10-22T06:06:19;13.70;;;8.40;;
52918;SDS011;38793;52.690;6.812;2022-10-22T06:08:50;18.45;;;8.65;;
52918;SDS011;38793;52.690;6.812;2022-10-22T06:11:17;16.83;;;8.82;;
52918;SDS011;38793;52.690;6.812;2022-10-22T06:13:44;18.50;;;7.80;;
52918;SDS011;38793;52.690;6.812;2022-10-22T06:16:11;16.52;;;9.05;;
52918;SDS011;38793;52.690;6.812;2022-10-22T06:18:37;14.88;;;7.70;;
52918;SDS011;38793;52.690;6.812;2022-10-22T06:21:03;12.95;;;8.23;;
52918;SDS011;38793;52.690;6.812;2022-10-22T06:23:34;18.88;;;7.75;;
52918;SDS011;38793;52.690;6.812;2022-10-22T06:26:01;18.65;;;8.60;;
52918;SDS011;38793;52.690;6.812;2022-10-22T06:28:27;18.02;;;9.18;;
52918;SDS011;38793;52.690;6.812;2022-10-22T06:30:52;14.23;;;7.25;;
52918;SDS011;38793;52.690;6.812;2022-10-22T06:33:18;13.63;;;7.70;;
52918;SDS011;38793;52.690;6.812;2022-10-22T06:35:44;10.50;;;7.15;;
52918;SDS011;38793;52.690;6.812;2022-10-22T06:38:09;15.30;;;7.65;;
52918;SDS011;38793;52.690;6.812;2022-10-22T06:40:36;12.10;;;7.40;;
52918;SDS011;38793;52.690;6.812;2022-10-22T06:43:01;11.27;;;6.25;;
52918;SDS011;38793;52.690;6.812;2022-10-22T06:45:27;16.10;;;8.13;;
52918;SDS011;38793;52.690;6.812;2022-10-22T06:47:53;14.63;;;8.43;;
52918;SDS011;38793;52.690;6.812;2022-10-22T06:52:45;15.98;;;7.53;;
52918;SDS011;38793;52.690;6.812;2022-10-22T06:55:11;11.93;;;7.25;;
52918;SDS011;38793;52.690;6.812;2022-10-22T06:57:36;13.73;;;7.40;;
52918;SDS011;38793;52.690;6.812;2022-10-22T07:00:03;15.20;;;7.47;;
52918;SDS011;38793;52.690;6.812;2022-10-22T07:02:30;17.08;;;7.10;;
52918;SDS011;38793;52.690;6.812;2022-10-22T07:04:55;10.73;;;7.30;;
52918;SDS011;38793;52.690;6.812;2022-10-22T07:07:21;12.32;;;6.93;;
52918;SDS011;38793;52.690;6.812;2022-10-22T07:09:47;16.10;;;8.50;;
52918;SDS011;38793;52.690;6.812;2022-10-22T07:12:13;12.23;;;7.35;;
52918;SDS011;38793;52.690;6.812;2022-10-22T07:17:05;16.30;;;7.50;;
52918;SDS011;38793;52.690;6.812;2022-10-22T07:19:30;15.38;;;7.38;;
52918;SDS011;38793;52.690;6.812;2022-10-22T07:21:56;13.85;;;6.20;;
52918;SDS011;38793;52.690;6.812;2022-10-22T07:24:21;13.32;;;6.80;;
52918;SDS011;38793;52.690;6.812;2022-10-22T07:26:47;21.55;;;7.32;;
52918;SDS011;38793;52.690;6.812;2022-10-22T07:29:13;15.73;;;6.80;;
52918;SDS011;38793;52.690;6.812;2022-10-22T07:31:39;14.65;;;7.75;;
52918;SDS011;38793;52.690;6.812;2022-10-22T07:36:31;11.70;;;6.32;;
52918;SDS011;38793;52.690;6.812;2022-10-22T07:38:57;12.90;;;6.00;;
52918;SDS011;38793;52.690;6.812;2022-10-22T07:41:24;12.93;;;5.57;;
52918;SDS011;38793;52.690;6.812;2022-10-22T07:43:50;15.70;;;5.60;;
52918;SDS011;38793;52.690;6.812;2022-10-22T07:46:16;13.77;;;6.75;;
52918;SDS011;38793;52.690;6.812;2022-10-22T07:48:42;13.05;;;5.57;;
52918;SDS011;38793;52.690;6.812;2022-10-22T07:51:08;16.65;;;5.85;;
52918;SDS011;38793;52.690;6.812;2022-10-22T07:53:33;15.10;;;5.90;;
52918;SDS011;38793;52.690;6.812;2022-10-22T07:55:59;11.00;;;5.95;;
52918;SDS011;38793;52.690;6.812;2022-10-22T07:58:25;10.75;;;5.95;;
52918;SDS011;38793;52.690;6.812;2022-10-22T08:00:53;13.87;;;6.33;;
52918;SDS011;38793;52.690;6.812;2022-10-22T08:03:20;12.27;;;5.95;;
52918;SDS011;38793;52.690;6.812;2022-10-22T08:05:46;10.32;;;5.40;;
52918;SDS011;38793;52.690;6.812;2022-10-22T08:08:12;13.05;;;6.32;;
52918;SDS011;38793;52.690;6.812;2022-10-22T08:10:39;11.77;;;5.50;;
52918;SDS011;38793;52.690;6.812;2022-10-22T08:13:05;12.85;;;6.07;;
52918;SDS011;38793;52.690;6.812;2022-10-22T08:15:31;18.13;;;6.82;;
52918;SDS011;38793;52.690;6.812;2022-10-22T08:17:57;13.60;;;5.88;;
52918;SDS011;38793;52.690;6.812;2022-10-22T08:20:23;13.57;;;6.35;;
52918;SDS011;38793;52.690;6.812;2022-10-22T08:22:48;14.95;;;6.15;;
52918;SDS011;38793;52.690;6.812;2022-10-22T08:25:14;16.15;;;5.57;;
52918;SDS011;38793;52.690;6.812;2022-10-22T08:27:40;10.27;;;5.68;;
52918;SDS011;38793;52.690;6.812;2022-10-22T08:30:06;12.00;;;5.65;;
52918;SDS011;38793;52.690;6.812;2022-10-22T08:32:32;10.40;;;6.38;;
52918;SDS011;38793;52.690;6.812;2022-10-22T08:34:57;13.48;;;6.68;;
52918;SDS011;38793;52.690;6.812;2022-10-22T08:37:23;15.38;;;5.82;;
52918;SDS011;38793;52.690;6.812;2022-10-22T08:39:49;11.45;;;5.68;;
52918;SDS011;38793;52.690;6.812;2022-10-22T08:42:35;12.38;;;5.15;;
52918;SDS011;38793;52.690;6.812;2022-10-22T08:47:55;16.48;;;4.85;;
52918;SDS011;38793;52.690;6.812;2022-10-22T08:53:04;14.05;;;4.85;;
52918;SDS011;38793;52.690;6.812;2022-10-22T08:55:37;11.20;;;4.90;;
52918;SDS011;38793;52.690;6.812;2022-10-22T09:03:29;11.75;;;4.68;;
52918;SDS011;38793;52.690;6.812;2022-10-22T09:06:14;8.93;;;4.18;;
52918;SDS011;38793;52.690;6.812;2022-10-22T09:08:49;11.82;;;4.65;;
52918;SDS011;38793;52.690;6.812;2022-10-22T09:11:22;9.75;;;4.22;;
52918;SDS011;38793;52.690;6.812;2022-10-22T09:13:52;14.13;;;4.33;;
52918;SDS011;38793;52.690;6.812;2022-10-22T09:16:50;11.35;;;4.30;;
52918;SDS011;38793;52.690;6.812;2022-10-22T09:22:21;11.80;;;4.22;;
52918;SDS011;38793;52.690;6.812;2022-10-22T09:24:52;9.70;;;3.08;;
52918;SDS011;38793;52.690;6.812;2022-10-22T09:27:27;9.25;;;3.97;;
52918;SDS011;38793;52.690;6.812;2022-10-22T09:29:54;8.02;;;3.85;;
52918;SDS011;38793;52.690;6.812;2022-10-22T09:32:20;11.90;;;3.35;;
52918;SDS011;38793;52.690;6.812;2022-10-22T09:34:47;13.93;;;4.78;;
52918;SDS011;38793;52.690;6.812;2022-10-22T09:37:15;13.23;;;3.83;;
52918;SDS011;38793;52.690;6.812;2022-10-22T09:39:46;11.82;;;3.20;;
52918;SDS011;38793;52.690;6.812;2022-10-22T09:42:15;14.13;;;4.07;;
52918;SDS011;38793;52.690;6.812;2022-10-22T09:44:42;7.47;;;3.58;;
52918;SDS011;38793;52.690;6.812;2022-10-22T09:50:26;6.68;;;2.90;;
52918;SDS011;38793;52.690;6.812;2022-10-22T09:53:10;11.20;;;3.45;;
52918;SDS011;38793;52.690;6.812;2022-10-22T09:55:57;18.95;;;4.18;;
52918;SDS011;38793;52.690;6.812;2022-10-22T09:58:43;15.73;;;3.75;;
52918;SDS011;38793;52.690;6.812;2022-10-22T10:01:15;8.65;;;3.78;;
52918;SDS011;38793;52.690;6.812;2022-10-22T10:03:42;17.33;;;3.45;;
52918;SDS011;38793;52.690;6.812;2022-10-22T10:06:08;11.55;;;3.33;;
52918;SDS011;38793;52.690;6.812;2022-10-22T10:08:33;12.80;;;3.33;;
52918;SDS011;38793;52.690;6.812;2022-10-22T10:11:04;7.38;;;2.78;;
52918;SDS011;38793;52.690;6.812;2022-10-22T10:13:43;15.52;;;3.35;;
52918;SDS011;38793;52.690;6.812;2022-10-22T10:22:01;5.70;;;3.10;;
52918;SDS011;38793;52.690;6.812;2022-10-22T10:27:35;14.93;;;3.67;;
52918;SDS011;38793;52.690;6.812;2022-10-22T10:30:09;10.98;;;3.63;;
52918;SDS011;38793;52.690;6.812;2022-10-22T10:38:05;9.68;;;3.58;;
52918;SDS011;38793;52.690;6.812;2022-10-22T10:41:03;8.93;;;3.88;;
52918;SDS011;38793;52.690;6.812;2022-10-22T10:43:39;12.02;;;4.10;;
52918;SDS011;38793;52.690;6.812;2022-10-22T10:46:22;14.90;;;3.58;;
52918;SDS011;38793;52.690;6.812;2022-10-22T10:54:29;15.10;;;3.92;;
52918;SDS011;38793;52.690;6.812;2022-10-22T11:00:16;11.57;;;4.50;;
52918;SDS011;38793;52.690;6.812;2022-10-22T11:05:51;16.92;;;5.07;;
52918;SDS011;38793;52.690;6.812;2022-10-22T11:11:10;10.10;;;5.07;;
52918;SDS011;38793;52.690;6.812;2022-10-22T11:22:12;11.02;;;4.95;;
52918;SDS011;38793;52.690;6.812;2022-10-22T11:24:45;12.45;;;5.60;;
52918;SDS011;38793;52.690;6.812;2022-10-22T11:30:16;11.00;;;5.22;;
52918;SDS011;38793;52.690;6.812;2022-10-22T11:33:06;9.32;;;4.22;;
52918;SDS011;38793;52.690;6.812;2022-10-22T11:35:35;13.35;;;5.28;;
52918;SDS011;38793;52.690;6.812;2022-10-22T11:38:05;12.63;;;5.22;;
52918;SDS011;38793;52.690;6.812;2022-10-22T11:40:35;11.35;;;6.15;;
52918;SDS011;38793;52.690;6.812;2022-10-22T11:43:03;15.50;;;5.53;;
52918;SDS011;38793;52.690;6.812;2022-10-22T11:45:33;11.57;;;5.45;;
52918;SDS011;38793;52.690;6.812;2022-10-22T11:55:50;11.33;;;5.90;;
52918;SDS011;38793;52.690;6.812;2022-10-22T11:58:29;10.00;;;5.85;;
52918;SDS011;38793;52.690;6.812;2022-10-22T12:00:56;15.63;;;6.15;;
52918;SDS011;38793;52.690;6.812;2022-10-22T12:03:52;16.17;;;5.10;;
52918;SDS011;38793;52.690;6.812;2022-10-22T12:06:22;17.90;;;6.78;;
52918;SDS011;38793;52.690;6.812;2022-10-22T12:16:42;10.00;;;3.97;;
52918;SDS011;38793;52.690;6.812;2022-10-22T12:21:47;9.70;;;3.57;;
52918;SDS011;38793;52.690;6.812;2022-10-22T12:24:18;6.95;;;3.38;;
52918;SDS011;38793;52.690;6.812;2022-10-22T12:26:46;9.48;;;4.75;;
52918;SDS011;38793;52.690;6.812;2022-10-22T12:29:14;10.95;;;3.70;;
52918;SDS011;38793;52.690;6.812;2022-10-22T12:31:42;6.63;;;3.45;;
52918;SDS011;38793;52.690;6.812;2022-10-22T12:34:16;13.38;;;3.13;;
52918;SDS011;38793;52.690;6.812;2022-10-22T12:39:13;11.77;;;4.07;;
52918;SDS011;38793;52.690;6.812;2022-10-22T12:41:41;13.50;;;3.80;;
52918;SDS011;38793;52.690;6.812;2022-10-22T12:44:10;8.43;;;3.55;;
52918;SDS011;38793;52.690;6.812;2022-10-22T12:46:37;11.25;;;3.92;;
52918;SDS011;38793;52.690;6.812;2022-10-22T12:51:32;10.52;;;3.55;;
52918;SDS011;38793;52.690;6.812;2022-10-22T12:54:01;8.65;;;3.50;;
52918;SDS011;38793;52.690;6.812;2022-10-22T12:56:32;8.02;;;2.95;;
52918;SDS011;38793;52.690;6.812;2022-10-22T12:58:59;9.30;;;3.53;;
52918;SDS011;38793;52.690;6.812;2022-10-22T13:01:28;12.20;;;2.63;;
52918;SDS011;38793;52.690;6.812;2022-10-22T13:04:04;6.88;;;2.20;;
52918;SDS011;38793;52.690;6.812;2022-10-22T13:06:36;11.63;;;2.95;;
52918;SDS011;38793;52.690;6.812;2022-10-22T13:09:15;10.30;;;3.05;;
52918;SDS011;38793;52.690;6.812;2022-10-22T13:11:55;15.20;;;3.35;;
52918;SDS011;38793;52.690;6.812;2022-10-22T13:14:29;12.48;;;3.70;;
52918;SDS011;38793;52.690;6.812;2022-10-22T13:17:01;12.93;;;2.67;;
52918;SDS011;38793;52.690;6.812;2022-10-22T13:19:36;8.15;;;2.72;;
52918;SDS011;38793;52.690;6.812;2022-10-22T13:24:55;9.57;;;2.85;;
52918;SDS011;38793;52.690;6.812;2022-10-22T13:27:28;10.88;;;2.40;;
52918;SDS011;38793;52.690;6.812;2022-10-22T13:29:55;11.82;;;2.45;;
52918;SDS011;38793;52.690;6.812;2022-10-22T13:32:29;8.13;;;2.80;;
52918;SDS011;38793;52.690;6.812;2022-10-22T13:34:57;10.20;;;2.70;;
52918;SDS011;38793;52.690;6.812;2022-10-22T13:37:24;10.68;;;2.17;;
52918;SDS011;38793;52.690;6.812;2022-10-22T13:39:50;12.32;;;2.42;;
52918;SDS011;38793;52.690;6.812;2022-10-22T13:42:16;10.25;;;2.45;;
52918;SDS011;38793;52.690;6.812;2022-10-22T13:44:41;9.23;;;2.78;;
52918;SDS011;38793;52.690;6.812;2022-10-22T13:47:17;7.15;;;1.77;;
52918;SDS011;38793;52.690;6.812;2022-10-22T13:49:51;9.23;;;1.35;;
52918;SDS011;38793;52.690;6.812;2022-10-22T13:55:19;5.82;;;1.55;;
52918;SDS011;38793;52.690;6.812;2022-10-22T13:57:49;7.93;;;1.33;;
52918;SDS011;38793;52.690;6.812;2022-10-22T14:00:17;9.13;;;2.10;;
52918;SDS011;38793;52.690;6.812;2022-10-22T14:02:45;9.57;;;1.17;;
52918;SDS011;38793;52.690;6.812;2022-10-22T14:05:12;9.10;;;1.83;;
52918;SDS011;38793;52.690;6.812;2022-10-22T14:07:39;6.13;;;1.13;;
52918;SDS011;38793;52.690;6.812;2022-10-22T14:10:08;7.57;;;1.27;;
52918;SDS011;38793;52.690;6.812;2022-10-22T14:12:44;9.00;;;1.00;;
52918;SDS011;38793;52.690;6.812;2022-10-22T14:17:37;5.25;;;1.20;;
52918;SDS011;38793;52.690;6.812;2022-10-22T14:20:03;7.68;;;1.30;;
52918;SDS011;38793;52.690;6.812;2022-10-22T14:22:29;6.82;;;0.88;;
52918;SDS011;38793;52.690;6.812;2022-10-22T14:24:55;3.00;;;0.40;;
52918;SDS011;38793;52.690;6.812;2022-10-22T14:27:21;9.15;;;0.95;;
52918;SDS011;38793;52.690;6.812;2022-10-22T14:29:46;6.05;;;1.23;;
52918;SDS011;38793;52.690;6.812;2022-10-22T14:32:13;4.82;;;0.70;;
52918;SDS011;38793;52.690;6.812;2022-10-22T14:34:40;2.72;;;0.70;;
52918;SDS011;38793;52.690;6.812;2022-10-22T14:37:12;6.60;;;0.50;;
52918;SDS011;38793;52.690;6.812;2022-10-22T14:39:43;6.82;;;0.77;;
52918;SDS011;38793;52.690;6.812;2022-10-22T14:42:11;6.15;;;0.88;;
52918;SDS011;38793;52.690;6.812;2022-10-22T14:44:38;7.95;;;0.98;;
52918;SDS011;38793;52.690;6.812;2022-10-22T14:47:04;4.57;;;0.75;;
52918;SDS011;38793;52.690;6.812;2022-10-22T14:49:30;6.88;;;0.77;;
52918;SDS011;38793;52.690;6.812;2022-10-22T14:51:55;4.30;;;1.05;;
52918;SDS011;38793;52.690;6.812;2022-10-22T14:54:21;2.25;;;0.60;;
52918;SDS011;38793;52.690;6.812;2022-10-22T14:56:47;5.40;;;0.60;;
52918;SDS011;38793;52.690;6.812;2022-10-22T14:59:12;8.40;;;0.75;;
52918;SDS011;38793;52.690;6.812;2022-10-22T15:01:38;3.40;;;0.40;;
52918;SDS011;38793;52.690;6.812;2022-10-22T15:04:03;8.88;;;1.10;;
52918;SDS011;38793;52.690;6.812;2022-10-22T15:06:29;5.72;;;1.15;;
52918;SDS011;38793;52.690;6.812;2022-10-22T15:08:55;8.07;;;1.75;;
52918;SDS011;38793;52.690;6.812;2022-10-22T15:11:20;7.05;;;1.92;;
52918;SDS011;38793;52.690;6.812;2022-10-22T15:13:46;5.78;;;0.90;;
52918;SDS011;38793;52.690;6.812;2022-10-22T15:16:12;3.92;;;0.40;;
52918;SDS011;38793;52.690;6.812;2022-10-22T15:18:40;14.40;;;1.65;;
52918;SDS011;38793;52.690;6.812;2022-10-22T15:21:06;8.02;;;0.77;;
52918;SDS011;38793;52.690;6.812;2022-10-22T15:23:37;11.45;;;1.00;;
52918;SDS011;38793;52.690;6.812;2022-10-22T15:26:05;9.50;;;1.40;;
52918;SDS011;38793;52.690;6.812;2022-10-22T15:28:35;9.95;;;1.23;;
52918;SDS011;38793;52.690;6.812;2022-10-22T15:31:02;7.22;;;0.82;;
52918;SDS011;38793;52.690;6.812;2022-10-22T15:33:28;9.20;;;2.30;;
52918;SDS011;38793;52.690;6.812;2022-10-22T15:35:55;4.55;;;0.75;;
52918;SDS011;38793;52.690;6.812;2022-10-22T15:38:25;10.40;;;1.02;;
52918;SDS011;38793;52.690;6.812;2022-10-22T15:40:58;9.80;;;1.05;;
52918;SDS011;38793;52.690;6.812;2022-10-22T15:43:25;11.82;;;2.28;;
52918;SDS011;38793;52.690;6.812;2022-10-22T15:45:55;7.55;;;1.05;;
52918;SDS011;38793;52.690;6.812;2022-10-22T15:48:39;15.60;;;3.85;;
52918;SDS011;38793;52.690;6.812;2022-10-22T15:51:06;11.98;;;3.03;;
52918;SDS011;38793;52.690;6.812;2022-10-22T15:53:39;10.75;;;1.60;;
52918;SDS011;38793;52.690;6.812;2022-10-22T15:58:31;11.82;;;1.13;;
52918;SDS011;38793;52.690;6.812;2022-10-22T16:01:03;7.20;;;1.58;;
52918;SDS011;38793;52.690;6.812;2022-10-22T16:03:34;9.48;;;1.10;;
52918;SDS011;38793;52.690;6.812;2022-10-22T16:06:00;7.72;;;1.35;;
52918;SDS011;38793;52.690;6.812;2022-10-22T16:08:25;7.68;;;1.00;;
52918;SDS011;38793;52.690;6.812;2022-10-22T16:13:17;13.95;;;2.47;;
52918;SDS011;38793;52.690;6.812;2022-10-22T16:15:45;18.38;;;1.40;;
52918;SDS011;38793;52.690;6.812;2022-10-22T16:18:11;4.70;;;1.42;;
52918;SDS011;38793;52.690;6.812;2022-10-22T16:20:37;50.97;;;4.28;;
52918;SDS011;38793;52.690;6.812;2022-10-22T16:23:04;10.13;;;2.08;;
52918;SDS011;38793;52.690;6.812;2022-10-22T16:25:29;12.27;;;1.85;;
52918;SDS011;38793;52.690;6.812;2022-10-22T16:27:55;7.73;;;1.17;;
52918;SDS011;38793;52.690;6.812;2022-10-22T16:30:20;10.05;;;2.35;;
52918;SDS011;38793;52.690;6.812;2022-10-22T16:32:46;9.90;;;1.73;;
52918;SDS011;38793;52.690;6.812;2022-10-22T16:35:11;5.13;;;1.50;;
52918;SDS011;38793;52.690;6.812;2022-10-22T16:37:37;14.38;;;1.27;;
52918;SDS011;38793;52.690;6.812;2022-10-22T16:40:03;12.70;;;1.17;;
52918;SDS011;38793;52.690;6.812;2022-10-22T16:44:54;12.27;;;1.25;;
52918;SDS011;38793;52.690;6.812;2022-10-22T16:47:20;8.70;;;1.95;;
52918;SDS011;38793;52.690;6.812;2022-10-22T16:49:45;15.65;;;1.30;;
52918;SDS011;38793;52.690;6.812;2022-10-22T16:52:10;16.58;;;1.77;;
52918;SDS011;38793;52.690;6.812;2022-10-22T16:54:36;7.68;;;1.00;;